Flugplatz St. Michaelisdonn

EDXM · 石勒苏益格-荷尔斯泰因, 德国

罗盘
风向 的 风向 260° Flugplatz St. Michaelisdonn 7/25
风: 22 kt, 6 beaufort

22 kt

2 kt
改变
0 ft 1.000 2.000 3.000 4.000 5.000
Cloud Cloud Cloud Cloud Cloud Cloud
BKN 2.300
METAR ETMN 011120Z 26022KT 9999 -RA BKN023 05/02 Q1007 WHT BLU TEMPO GRN

METAR Flugplatz St. Michaelisdonn - EDXM

Flugplatz St. Michaelisdonn是,德国中的小机场。 该机场有一条跑道: 7/25. 该领域的国际民航组织标志是EDXM.

这份报告是针对2023年2月1日 12:20, 当地时间在Nordholz Naval Airbase进行的。

机场观察

风向为260°,速度为22 kt。

可见度为10 km 或者更多。

有碎云在2.300 ft的高度。 破损或更高的上限为2.300 ft。

当前天气为光 雨。 温度为5 °C,阵风为-3 °C。 露点为2 °C,相对湿度为81%。 海平面上的气压为1007 hPa (QNH)。

发展趋势

  • 暂时的

    可变方向的风很小或没有。

白天

今天,太阳从08:10升起,在17:03降落。 这适用于Flugplatz St. Michaelisdonn,世界夏令时可能有所不同。 当地时间与世界标准时间之间的时差为+1 小时。 当前,没有夏令时有效。

公司介绍

我们没有关于这个机场的公司信息。

体会

到Vliegles.nl去找飞行课程,跳伞和其他飞行体验。 浏览页面,了解Flugplatz St. Michaelisdonn附近所有可用的活动。 你也可以使用搜索功能来寻找你所在地附近的特定飞行课程、跳伞或其他飞行体验。

跑道

Id 标题 侧风 逆风 侧风 %
7/25 074°-254° 2 kt 22 kt 10 %

逆风成分最大的方向会被突出显示,并用于横风计算。 这并不一定意味着这个方向在使用。

乌云

2.300 ft BKN 碎云

温度 & 天气

天气 光 雨
温度 5 °C
露点 2 °C
相对湿度 81%
风寒 -3 °C
Kp-index 0 (0-9)

白天

日出
08:11
中午
12:38
日落
17:06 (4:17)

小工具

你想在你的网站上有一个关于Flugplatz St. Michaelisdonn的当前航空天气(METAR)的小部件吗?

显示HTML代码

我们和第三方通过cookies跟踪您在我们网站上的互联网行为。如果你继续,我们认为你同意我们的饼干政策